Time;durP1;ratioP1;P1;durP2;ratioP2;P2;SDS_P1;SDS_P2;PMS_P1;PMS_P2;Temp;Humidity;BMP_temperature;BMP_pressure;BME280_temperature;BME280_humidity;BME280_pressure;Samples;Min_cycle;Max_cycle;Signal;HPM_P1;HPM_P2
2023/11/26 00:02:01;;;;;;;7.73;4.40;;;;;;;0.05;75.05;98940.94;5123689;27;20216;-65
2023/11/26 00:04:29;;;;;;;6.30;4.07;;;;;;;0.09;75.34;98945.22;5118313;27;20231;-62
2023/11/26 00:06:57;;;;;;;6.33;3.60;;;;;;;0.12;75.08;98952.84;5111434;27;20420;-63
2023/11/26 00:09:25;;;;;;;5.63;3.60;;;;;;;0.15;74.89;98953.75;5116880;27;20621;-65
2023/11/26 00:11:53;;;;;;;5.30;2.97;;;;;;;0.15;74.53;98952.88;5117285;27;20662;-65
2023/11/26 00:14:22;;;;;;;5.50;3.57;;;;;;;0.16;74.74;98949.53;5110897;27;20301;-63
2023/11/26 00:16:50;;;;;;;6.10;3.27;;;;;;;0.18;74.93;98953.75;5099105;28;20284;-65
2023/11/26 00:19:18;;;;;;;5.57;3.33;;;;;;;0.20;74.53;98959.69;5120627;27;20686;-63
2023/11/26 00:21:48;;;;;;;6.97;3.33;;;;;;;0.22;74.32;98954.63;5107064;27;20725;-65
2023/11/26 00:24:16;;;;;;;6.40;3.33;;;;;;;0.22;73.67;98957.16;5114190;27;20218;-64
2023/11/26 00:26:44;;;;;;;6.17;3.90;;;;;;;0.21;74.29;98963.06;5114446;27;20534;-64
2023/11/26 00:29:12;;;;;;;6.07;3.80;;;;;;;0.22;74.37;98964.78;5108673;27;20249;-64
2023/11/26 00:31:42;;;;;;;6.93;3.77;;;;;;;0.23;74.33;98974.09;5123079;27;20199;-64
2023/11/26 00:34:10;;;;;;;8.13;3.83;;;;;;;0.22;74.24;98975.78;5111780;28;20620;-66
2023/11/26 00:36:38;;;;;;;8.53;4.20;;;;;;;0.22;73.60;98982.50;5113854;27;20200;-63
2023/11/26 00:39:06;;;;;;;5.87;3.60;;;;;;;0.20;73.89;98985.03;5114203;27;20212;-65
2023/11/26 00:41:33;;;;;;;4.00;2.73;;;;;;;0.20;73.62;98986.72;5110835;27;20203;-65
2023/11/26 00:44:01;;;;;;;4.47;3.03;;;;;;;0.16;73.47;98990.03;5106604;27;20271;-64
2023/11/26 00:46:29;;;;;;;5.83;3.47;;;;;;;0.15;73.99;98995.94;5113662;27;20203;-66
2023/11/26 00:48:58;;;;;;;8.33;3.70;;;;;;;0.16;73.65;99001.03;5114224;27;20283;-64
2023/11/26 00:51:26;;;;;;;7.73;3.80;;;;;;;0.18;73.32;99001.88;5115271;27;20230;-63
2023/11/26 00:53:55;;;;;;;6.37;3.50;;;;;;;0.20;73.95;99000.22;5113136;27;20203;-65
2023/11/26 00:56:22;;;;;;;7.50;3.43;;;;;;;0.19;73.53;99000.22;5112227;28;20199;-64
2023/11/26 00:58:52;;;;;;;9.43;3.33;;;;;;;0.07;73.53;99000.03;5109844;28;20577;-64
2023/11/26 01:01:20;;;;;;;6.53;3.67;;;;;;;0.02;73.64;99001.66;5117286;27;20204;-65
2023/11/26 01:03:48;;;;;;;5.53;3.37;;;;;;;-0.03;74.41;98999.94;5115495;27;20694;-65
2023/11/26 01:06:18;;;;;;;6.40;3.70;;;;;;;-0.05;74.66;99004.09;5117597;27;20200;-65
2023/11/26 01:08:46;;;;;;;4.63;3.30;;;;;;;-0.08;75.09;99001.53;5117311;27;20203;-66
2023/11/26 01:11:14;;;;;;;4.97;3.17;;;;;;;-0.07;74.78;99003.25;5117271;27;20209;-62
2023/11/26 01:13:43;;;;;;;4.97;3.57;;;;;;;-0.05;74.84;99009.16;5116742;27;20662;-62
2023/11/26 01:16:11;;;;;;;6.10;4.00;;;;;;;-0.05;74.11;98991.44;5114257;27;20259;-61
2023/11/26 01:18:39;;;;;;;6.30;4.00;;;;;;;-0.07;74.48;98993.13;5110508;27;20212;-66
2023/11/26 01:21:07;;;;;;;6.63;3.60;;;;;;;-0.15;74.51;98989.59;5106996;27;20203;-61
2023/11/26 01:23:37;;;;;;;5.30;4.03;;;;;;;-0.17;74.64;98990.44;5112169;27;20224;-63
2023/11/26 01:26:05;;;;;;;6.87;3.97;;;;;;;-0.23;74.97;98981.06;5118630;27;20196;-65
2023/11/26 01:28:33;;;;;;;5.40;3.37;;;;;;;-0.22;75.08;98992.91;5112457;27;20196;-62
2023/11/26 01:31:01;;;;;;;5.30;3.60;;;;;;;-0.25;75.38;98996.22;5113118;27;20709;-61
2023/11/26 01:33:29;;;;;;;6.70;3.57;;;;;;;-0.27;75.57;98997.88;5119128;27;20196;-62
2023/11/26 01:35:57;;;;;;;6.53;3.90;;;;;;;-0.27;75.57;99000.41;5110976;27;20203;-61
2023/11/26 01:38:25;;;;;;;6.10;3.13;;;;;;;-0.29;75.67;98996.19;5107514;27;20207;-61
2023/11/26 01:40:54;;;;;;;5.67;3.77;;;;;;;-0.33;76.40;98999.47;5116098;27;20214;-61
2023/11/26 01:43:24;;;;;;;9.20;3.80;;;;;;;-0.34;76.01;98998.63;5114946;27;20318;-64
2023/11/26 01:46:02;;;;;;;6.37;3.57;;;;;;;-0.32;76.16;99007.09;5111793;28;20543;-61
2023/11/26 01:48:30;;;;;;;4.77;3.70;;;;;;;-0.31;76.06;99006.25;5103055;28;20298;-62
2023/11/26 01:50:58;;;;;;;6.43;3.70;;;;;;;-0.31;76.87;99013.00;5121973;27;20279;-61
2023/11/26 01:53:26;;;;;;;4.37;3.23;;;;;;;-0.29;76.35;99011.38;5120036;27;20221;-60
2023/11/26 01:55:55;;;;;;;6.80;3.37;;;;;;;-0.27;76.49;99007.16;5109515;28;20271;-60
2023/11/26 01:58:23;;;;;;;4.70;3.30;;;;;;;-0.26;76.28;99004.66;5113581;28;20316;-62
2023/11/26 02:00:52;;;;;;;5.70;3.43;;;;;;;-0.27;75.98;99005.47;5121618;28;20605;-62
2023/11/26 02:03:20;;;;;;;4.27;3.23;;;;;;;-0.28;75.66;99011.38;5118386;28;20211;-61
2023/11/26 02:05:48;;;;;;;5.10;3.23;;;;;;;-0.27;75.89;99019.81;5097789;28;20565;-62
2023/11/26 02:08:16;;;;;;;5.63;3.30;;;;;;;-0.28;76.18;99018.13;5112487;28;20655;-62
2023/11/26 02:10:44;;;;;;;4.33;3.00;;;;;;;-0.23;76.30;99020.72;5116793;28;20199;-63
2023/11/26 02:13:13;;;;;;;4.30;3.00;;;;;;;-0.26;76.38;99011.38;5114371;27;20541;-63
2023/11/26 02:15:41;;;;;;;4.00;2.97;;;;;;;-0.26;76.09;99017.31;5111140;28;20259;-64
2023/11/26 02:18:09;;;;;;;4.60;3.23;;;;;;;-0.23;76.32;99016.50;5120675;28;20665;-61
2023/11/26 02:20:37;;;;;;;4.27;2.80;;;;;;;-0.22;75.81;99008.09;5103766;28;20655;-63
2023/11/26 02:23:08;;;;;;;4.10;2.77;;;;;;;-0.19;76.21;99010.66;5115293;28;20306;-62
2023/11/26 02:25:38;;;;;;;4.17;3.00;;;;;;;-0.19;76.02;99013.19;5122258;28;20678;-63
2023/11/26 02:28:06;;;;;;;5.43;2.70;;;;;;;-0.25;75.49;99013.94;5113421;28;20223;-63
2023/11/26 02:30:34;;;;;;;5.07;2.47;;;;;;;-0.22;75.44;99025.81;5112328;28;20283;-63
2023/11/26 02:33:02;;;;;;;3.53;2.77;;;;;;;-0.25;75.76;99020.69;5115629;27;20220;-64
2023/11/26 02:35:30;;;;;;;3.63;2.77;;;;;;;-0.26;75.75;99021.50;5112040;28;20208;-63
2023/11/26 02:38:00;;;;;;;3.63;2.40;;;;;;;-0.23;75.31;99021.56;5121674;28;20655;-65
2023/11/26 02:40:29;;;;;;;3.70;2.53;;;;;;;-0.21;74.75;99019.91;5120557;28;20244;-63
2023/11/26 02:42:59;;;;;;;3.95;2.50;;;;;;;-0.21;75.76;99017.38;5118335;28;20204;-64
2023/11/26 02:45:28;;;;;;;4.80;3.00;;;;;;;-0.20;75.76;99025.81;5113170;28;20658;-63
2023/11/26 02:47:56;;;;;;;3.40;2.73;;;;;;;-0.21;75.56;99019.91;5108616;28;20629;-65
2023/11/26 02:50:24;;;;;;;2.57;2.17;;;;;;;-0.17;75.89;99034.31;5109498;28;20207;-64
2023/11/26 02:52:52;;;;;;;2.87;2.67;;;;;;;-0.13;75.77;99033.53;5114291;27;20650;-65
2023/11/26 02:55:21;;;;;;;3.90;2.80;;;;;;;-0.12;74.96;99025.09;5122199;27;20563;-63
2023/11/26 02:57:49;;;;;;;3.43;2.43;;;;;;;-0.11;75.29;99028.47;5124187;27;20302;-68
2023/11/26 03:00:20;;;;;;;5.37;2.70;;;;;;;-0.06;74.93;99047.97;5105765;27;20201;-65
2023/11/26 03:02:48;;;;;;;3.83;2.53;;;;;;;-0.05;74.74;99051.38;5120320;27;20218;-65
2023/11/26 03:05:19;;;;;;;3.33;2.43;;;;;;;-0.06;74.34;99053.03;5117320;27;20208;-64
2023/11/26 03:07:50;;;;;;;3.70;2.80;;;;;;;-0.04;74.48;99055.59;5120419;27;20202;-65
2023/11/26 03:15:50;;;;;;;2.67;2.43;;;;;;;-0.10;74.77;99063.13;5113970;27;20300;-63
2023/11/26 03:18:18;;;;;;;6.10;3.30;;;;;;;-0.12;74.93;99052.94;5114322;27;20212;-64
2023/11/26 03:20:46;;;;;;;3.93;2.80;;;;;;;-0.13;74.76;99047.88;5112366;27;20591;-64
2023/11/26 03:23:14;;;;;;;3.07;2.77;;;;;;;-0.13;75.11;99061.38;5103264;27;20570;-67
2023/11/26 03:25:42;;;;;;;3.40;3.10;;;;;;;-0.15;74.89;99060.50;5116478;27;20671;-67
2023/11/26 03:28:10;;;;;;;4.90;3.10;;;;;;;-0.19;75.10;99068.88;5114918;27;20204;-63
2023/11/26 03:30:38;;;;;;;3.63;2.90;;;;;;;-0.22;75.78;99066.31;5114072;27;20256;-63
2023/11/26 03:33:09;;;;;;;3.10;2.80;;;;;;;-0.21;75.58;99062.09;5106730;27;20695;-63
2023/11/26 03:35:37;;;;;;;3.27;2.77;;;;;;;-0.20;76.06;99062.13;5102796;27;20282;-61
2023/11/26 03:38:05;;;;;;;3.23;2.73;;;;;;;-0.19;75.69;99068.88;5119106;27;20208;-60
2023/11/26 03:40:33;;;;;;;4.20;3.37;;;;;;;-0.14;75.60;99068.97;5116682;27;20192;-61
2023/11/26 03:43:01;;;;;;;4.23;3.17;;;;;;;-0.10;75.61;99063.13;5119871;27;20204;-62
2023/11/26 03:45:30;;;;;;;4.50;3.20;;;;;;;-0.12;75.71;99065.59;5113531;28;20223;-61
2023/11/26 03:47:59;;;;;;;3.20;2.90;;;;;;;-0.14;75.85;99072.34;5116360;27;20223;-60
2023/11/26 03:50:29;;;;;;;4.17;2.87;;;;;;;-0.13;75.79;99070.66;5115007;27;20206;-61
2023/11/26 03:52:57;;;;;;;3.27;2.97;;;;;;;-0.14;75.99;99077.41;5106047;27;20873;-61
2023/11/26 03:55:25;;;;;;;4.63;2.80;;;;;;;-0.11;75.69;99072.41;5123189;27;20703;-65
2023/11/26 03:57:53;;;;;;;3.97;3.30;;;;;;;-0.13;75.95;99071.50;5122487;27;20253;-62
2023/11/26 04:00:21;;;;;;;3.63;3.03;;;;;;;-0.10;75.86;99069.03;5121919;27;20580;-63
2023/11/26 04:02:49;;;;;;;3.70;3.13;;;;;;;-0.07;75.71;99078.34;5116049;27;20199;-61
2023/11/26 04:05:17;;;;;;;4.27;2.97;;;;;;;-0.12;75.52;99063.06;5114592;27;20760;-60
2023/11/26 04:07:47;;;;;;;3.40;2.87;;;;;;;-0.21;74.97;99079.81;5113240;27;20211;-61
2023/11/26 04:10:15;;;;;;;3.80;2.70;;;;;;;-0.29;75.94;99078.00;5105834;27;20203;-62
2023/11/26 04:12:54;;;;;;;3.80;3.17;;;;;;;-0.29;76.23;99085.59;5119074;27;20199;-62
2023/11/26 04:15:22;;;;;;;3.67;2.60;;;;;;;-0.28;75.91;99084.78;5107101;27;20235;-64
2023/11/26 04:17:51;;;;;;;3.30;2.43;;;;;;;-0.30;76.39;99094.00;5103711;27;20285;-61
2023/11/26 04:20:19;;;;;;;3.30;2.67;;;;;;;-0.28;76.42;99089.84;5124048;27;20720;-62
2023/11/26 04:22:48;;;;;;;3.73;3.27;;;;;;;-0.25;75.83;99083.97;5120338;27;20212;-62
2023/11/26 04:25:16;;;;;;;3.07;2.60;;;;;;;-0.23;76.51;99094.97;5115185;27;20216;-63
2023/11/26 04:27:44;;;;;;;2.80;2.60;;;;;;;-0.19;76.02;99100.94;5110304;27;20682;-61
2023/11/26 04:30:14;;;;;;;6.20;2.60;;;;;;;-0.20;75.36;99092.50;5120322;27;20206;-60
2023/11/26 04:32:42;;;;;;;4.53;2.67;;;;;;;-0.20;75.44;99096.69;5120298;27;20614;-61
2023/11/26 04:35:11;;;;;;;2.93;2.63;;;;;;;-0.18;75.70;99093.38;5118095;27;20584;-60
2023/11/26 04:37:39;;;;;;;2.80;2.40;;;;;;;-0.16;74.91;99103.50;5118282;27;20214;-62
2023/11/26 04:40:10;;;;;;;3.73;2.67;;;;;;;-0.17;74.81;99099.28;5123007;27;20203;-64
2023/11/26 04:42:38;;;;;;;2.67;2.43;;;;;;;-0.16;75.33;99103.50;5122371;27;20227;-64
2023/11/26 04:45:07;;;;;;;3.00;2.70;;;;;;;-0.17;75.09;99110.25;5112010;27;20220;-62
2023/11/26 04:47:36;;;;;;;2.90;2.60;;;;;;;-0.17;74.98;99117.84;5108158;27;20207;-66
2023/11/26 04:50:05;;;;;;;3.23;2.60;;;;;;;-0.17;74.92;99122.91;5122273;27;20208;-63
2023/11/26 04:52:33;;;;;;;3.20;2.63;;;;;;;-0.15;75.07;99125.47;5112310;28;20203;-60
2023/11/26 04:55:01;;;;;;;4.00;2.90;;;;;;;-0.19;74.87;99118.66;5113057;27;20247;-61
2023/11/26 04:57:30;;;;;;;3.50;2.80;;;;;;;-0.15;74.99;99120.41;5112529;28;20204;-62
2023/11/26 04:59:58;;;;;;;2.97;2.60;;;;;;;-0.20;74.46;99112.75;5103448;27;20249;-61
2023/11/26 05:02:31;;;;;;;4.73;2.80;;;;;;;-0.19;74.86;99124.56;5108885;27;20257;-62
2023/11/26 05:05:00;;;;;;;3.73;2.87;;;;;;;-0.16;75.02;99128.84;5120623;27;20224;-61
2023/11/26 05:07:29;;;;;;;3.17;2.37;;;;;;;-0.19;74.91;99111.91;5119974;27;20558;-64
2023/11/26 05:09:57;;;;;;;2.53;2.20;;;;;;;-0.20;75.22;99122.00;5116511;27;20204;-61
2023/11/26 05:12:25;;;;;;;4.33;3.07;;;;;;;-0.19;75.61;99132.16;5120250;27;20244;-62
2023/11/26 05:14:54;;;;;;;3.40;2.80;;;;;;;-0.18;75.75;99133.03;5108453;27;20713;-63
2023/11/26 05:17:22;;;;;;;4.93;3.13;;;;;;;-0.18;75.65;99130.50;5112542;28;20727;-61
2023/11/26 05:19:50;;;;;;;2.93;2.63;;;;;;;-0.14;75.67;99143.22;5112137;28;20236;-63
2023/11/26 05:22:18;;;;;;;4.03;2.50;;;;;;;-0.13;76.10;99142.38;5105706;28;20518;-62
2023/11/26 05:24:46;;;;;;;3.07;2.47;;;;;;;-0.15;75.33;99141.50;5097972;28;20586;-61
2023/11/26 05:27:13;;;;;;;4.63;2.77;;;;;;;-0.15;75.48;99154.16;5114883;27;20681;-62
2023/11/26 05:29:41;;;;;;;2.70;2.50;;;;;;;-0.14;75.64;99153.34;5111199;27;20200;-61
2023/11/26 05:32:10;;;;;;;4.20;2.80;;;;;;;-0.14;75.24;99163.47;5101204;28;20196;-62
2023/11/26 05:34:38;;;;;;;3.70;2.57;;;;;;;-0.14;75.88;99168.53;5108362;28;20237;-61
2023/11/26 05:37:07;;;;;;;3.73;2.97;;;;;;;-0.13;75.48;99170.25;5114452;27;20285;-61
2023/11/26 05:39:34;;;;;;;5.10;3.17;;;;;;;-0.12;75.71;99174.47;5112088;28;20250;-62
2023/11/26 05:42:02;;;;;;;4.43;2.67;;;;;;;-0.09;75.71;99174.53;5111902;28;20655;-61
2023/11/26 05:44:30;;;;;;;4.00;2.83;;;;;;;-0.09;75.60;99166.09;5111923;28;20199;-63
2023/11/26 05:46:58;;;;;;;2.93;2.67;;;;;;;-0.10;75.66;99177.91;5109363;27;20643;-63
2023/11/26 05:49:28;;;;;;;4.23;2.90;;;;;;;-0.10;75.54;99184.66;5100726;28;20256;-61
2023/11/26 05:51:57;;;;;;;3.13;2.80;;;;;;;-0.12;75.89;99183.75;5109821;27;20213;-63
2023/11/26 05:54:26;;;;;;;3.80;2.87;;;;;;;-0.13;75.53;99187.97;5118042;27;20195;-65
2023/11/26 05:56:54;;;;;;;3.17;2.87;;;;;;;-0.16;75.91;99192.13;5107667;27;21716;-64
2023/11/26 05:59:22;;;;;;;3.57;2.80;;;;;;;-0.16;75.96;99189.59;5110699;28;20199;-65
2023/11/26 06:01:50;;;;;;;4.43;3.17;;;;;;;-0.19;75.11;99200.50;5098873;28;20571;-64
2023/11/26 06:04:18;;;;;;;6.13;3.23;;;;;;;-0.18;75.82;99199.69;5110376;28;20608;-62
2023/11/26 06:06:48;;;;;;;3.97;2.93;;;;;;;-0.16;75.78;99200.56;5106717;28;20212;-65
2023/11/26 06:09:16;;;;;;;3.93;3.20;;;;;;;-0.21;75.48;99212.31;5101577;28;20736;-66
2023/11/26 06:11:44;;;;;;;3.80;2.93;;;;;;;-0.22;75.60;99219.84;5113145;28;20308;-66
2023/11/26 06:14:12;;;;;;;4.73;3.23;;;;;;;-0.25;75.92;99226.56;5111544;28;20206;-65
2023/11/26 06:16:42;;;;;;;3.77;2.80;;;;;;;-0.25;75.69;99228.25;5099315;28;20193;-64
2023/11/26 06:19:11;;;;;;;3.53;2.70;;;;;;;-0.26;76.06;99234.13;5107036;28;20207;-63
2023/11/26 06:21:39;;;;;;;4.50;2.63;;;;;;;-0.21;76.27;99239.28;5104845;28;20675;-63
2023/11/26 06:24:10;;;;;;;3.30;2.60;;;;;;;-0.18;76.08;99250.34;5106437;28;20240;-64
2023/11/26 06:26:40;;;;;;;3.40;3.07;;;;;;;-0.15;76.08;99247.84;5119655;27;20208;-64
2023/11/26 06:29:08;;;;;;;3.73;3.30;;;;;;;-0.11;75.24;99251.28;5119356;27;20246;-62
2023/11/26 06:31:36;;;;;;;3.90;3.13;;;;;;;-0.12;75.58;99257.16;5117605;27;20260;-63
2023/11/26 06:34:04;;;;;;;3.97;2.90;;;;;;;-0.12;75.87;99257.16;5105919;27;21023;-64
2023/11/26 06:36:32;;;;;;;4.47;3.07;;;;;;;-0.13;75.85;99261.38;5114117;27;20260;-62
2023/11/26 06:39:00;;;;;;;6.07;3.40;;;;;;;-0.10;75.63;99263.97;5131371;27;20200;-62
2023/11/26 06:41:32;;;;;;;4.07;3.60;;;;;;;-0.07;76.03;99258.13;5106064;28;20224;-64
2023/11/26 06:44:00;;;;;;;4.73;3.70;;;;;;;-0.11;75.27;99259.75;5102609;28;20204;-63
2023/11/26 06:46:30;;;;;;;3.63;3.27;;;;;;;-0.11;75.77;99269.00;5115973;27;20291;-64
2023/11/26 06:48:58;;;;;;;3.80;3.10;;;;;;;-0.12;75.90;99273.22;5114175;27;20717;-63
2023/11/26 06:51:25;;;;;;;3.20;2.90;;;;;;;-0.09;75.79;99278.34;5107573;27;20233;-62
2023/11/26 06:53:54;;;;;;;6.90;3.73;;;;;;;-0.03;76.26;99290.28;5125411;27;20295;-63
2023/11/26 06:56:22;;;;;;;3.03;2.60;;;;;;;0.02;75.79;99290.34;5101214;27;20770;-63
2023/11/26 06:58:51;;;;;;;3.97;2.90;;;;;;;-0.01;75.19;99292.00;5111646;27;20349;-63
2023/11/26 07:01:19;;;;;;;3.50;3.10;;;;;;;-0.03;75.07;99302.94;5110142;27;20215;-62
2023/11/26 07:03:48;;;;;;;3.33;2.77;;;;;;;-0.03;75.51;99303.78;5111554;27;20196;-60
2023/11/26 07:06:17;;;;;;;2.97;2.67;;;;;;;-0.04;75.18;99302.09;5115317;27;20544;-62
2023/11/26 07:08:45;;;;;;;3.40;2.53;;;;;;;-0.06;75.13;99300.34;5101000;28;20205;-60
2023/11/26 07:11:17;;;;;;;3.67;2.80;;;;;;;-0.06;75.21;99310.47;5110685;28;20204;-61
2023/11/26 07:13:45;;;;;;;4.07;2.90;;;;;;;-0.04;75.59;99327.41;5116020;27;20662;-61
2023/11/26 07:16:14;;;;;;;3.13;2.33;;;;;;;-0.02;74.84;99323.22;5108502;28;20254;-60
2023/11/26 07:18:43;;;;;;;3.37;2.70;;;;;;;-0.07;74.08;99327.34;5117737;27;20203;-62
2023/11/26 07:21:11;;;;;;;2.63;2.40;;;;;;;-0.09;74.00;99339.09;5113091;27;20208;-60
2023/11/26 07:23:40;;;;;;;2.97;2.67;;;;;;;-0.11;74.49;99350.91;5115465;27;20624;-61
2023/11/26 07:26:11;;;;;;;3.20;2.90;;;;;;;-0.11;74.92;99350.03;5115819;27;20247;-66
2023/11/26 07:28:40;;;;;;;3.57;3.03;;;;;;;-0.12;74.42;99346.63;5124539;27;20256;-63
2023/11/26 07:31:15;;;;;;;3.43;3.13;;;;;;;-0.10;74.47;99355.13;5123881;27;20286;-61
2023/11/26 07:33:43;;;;;;;4.20;3.60;;;;;;;-0.11;73.96;99348.38;5101372;27;20208;-65
2023/11/26 07:36:16;;;;;;;3.37;3.07;;;;;;;-0.15;73.45;99354.16;5106476;28;20199;-63
2023/11/26 07:38:44;;;;;;;4.73;3.70;;;;;;;-0.22;73.44;99365.03;5113729;28;20204;-65
2023/11/26 07:41:12;;;;;;;3.70;3.30;;;;;;;-0.21;74.46;99364.19;5112859;28;20206;-63
2023/11/26 07:43:40;;;;;;;4.80;3.33;;;;;;;-0.14;74.40;99368.56;5107243;27;20226;-65
2023/11/26 07:46:09;;;;;;;3.70;3.30;;;;;;;-0.13;72.77;99359.28;5101760;27;20674;-64
2023/11/26 07:48:40;;;;;;;4.23;3.27;;;;;;;-0.14;72.89;99363.50;5110375;27;20223;-61
2023/11/26 07:51:08;;;;;;;5.57;3.40;;;;;;;-0.13;72.96;99362.66;5109740;27;20203;-67
2023/11/26 07:53:37;;;;;;;3.27;2.73;;;;;;;-0.13;73.21;99370.25;5096083;28;20207;-63
2023/11/26 07:56:07;;;;;;;4.67;3.07;;;;;;;-0.13;73.90;99370.25;5107851;28;20244;-64
2023/11/26 07:58:35;;;;;;;5.30;3.33;;;;;;;0.02;72.62;99373.94;5118533;27;20249;-64
2023/11/26 08:01:05;;;;;;;3.17;2.87;;;;;;;0.14;72.53;99376.69;5099125;27;20663;-65
2023/11/26 08:03:35;;;;;;;3.53;3.20;;;;;;;0.31;72.39;99379.56;5107925;27;20216;-64
2023/11/26 08:06:06;;;;;;;3.33;2.83;;;;;;;0.51;71.64;99375.69;5111082;27;20211;-61
2023/11/26 08:08:36;;;;;;;3.07;2.87;;;;;;;0.63;70.16;99382.69;5113890;27;20627;-63
2023/11/26 08:11:05;;;;;;;6.20;3.17;;;;;;;0.68;69.60;99378.53;5115389;27;20203;-64
2023/11/26 08:13:37;;;;;;;3.50;3.17;;;;;;;0.75;69.25;99379.50;5114428;27;20215;-64
2023/11/26 08:16:09;;;;;;;2.90;2.70;;;;;;;0.74;68.56;99386.25;5121531;27;20650;-71
2023/11/26 08:18:37;;;;;;;3.13;2.90;;;;;;;0.69;68.94;99387.84;5099395;27;20208;-64
2023/11/26 08:21:07;;;;;;;3.40;3.10;;;;;;;0.70;68.23;99384.47;5120669;27;20203;-66
2023/11/26 08:23:40;;;;;;;3.43;3.13;;;;;;;0.71;68.62;99381.97;5113042;28;20216;-65
2023/11/26 08:26:09;;;;;;;3.27;2.97;;;;;;;0.73;68.56;99380.31;5112990;28;20196;-61
2023/11/26 08:28:42;;;;;;;4.97;3.07;;;;;;;0.69;67.82;99387.84;5113327;28;20677;-63
2023/11/26 08:31:11;;;;;;;3.53;2.90;;;;;;;0.64;68.54;99370.03;5112725;27;20212;-64
2023/11/26 08:33:42;;;;;;;4.13;3.30;;;;;;;0.65;68.57;99381.00;5097134;28;20647;-63
2023/11/26 08:36:18;;;;;;;3.10;2.80;;;;;;;0.66;68.39;99382.72;5097525;28;20699;-63
2023/11/26 08:38:47;;;;;;;4.67;3.47;;;;;;;0.70;67.51;99385.34;5125424;27;20199;-63
2023/11/26 08:41:20;;;;;;;3.50;3.00;;;;;;;0.78;68.75;99382.94;5107486;27;20295;-66
2023/11/26 08:43:50;;;;;;;3.83;3.07;;;;;;;0.85;68.71;99386.44;5110342;27;20509;-65
2023/11/26 08:46:21;;;;;;;3.83;3.27;;;;;;;0.93;68.43;99380.66;5124220;27;20203;-64
2023/11/26 08:48:52;;;;;;;3.43;3.13;;;;;;;0.89;67.08;99380.59;5111195;27;20242;-63
2023/11/26 08:51:22;;;;;;;3.57;2.90;;;;;;;0.85;68.48;99382.22;5113111;27;20685;-62
2023/11/26 08:53:50;;;;;;;3.47;2.97;;;;;;;0.76;68.00;99383.72;5104485;27;20200;-66
2023/11/26 08:56:18;;;;;;;4.00;3.10;;;;;;;0.67;68.73;99389.50;5110589;27;20663;-63
2023/11/26 08:58:46;;;;;;;3.23;2.70;;;;;;;0.60;68.94;99387.69;5117822;27;20208;-63
2023/11/26 09:01:15;;;;;;;3.47;2.87;;;;;;;0.57;69.57;99388.47;5108860;27;20253;-64
2023/11/26 09:03:43;;;;;;;4.03;3.00;;;;;;;0.66;69.75;99395.38;5110104;28;20230;-63
2023/11/26 09:06:11;;;;;;;5.93;3.13;;;;;;;0.67;70.03;99404.72;5113608;27;20196;-66
2023/11/26 09:08:40;;;;;;;3.30;3.00;;;;;;;0.62;69.88;99393.63;5107562;27;20231;-64
2023/11/26 09:11:08;;;;;;;5.37;2.87;;;;;;;0.64;70.50;99400.44;5108702;27;20208;-67
2023/11/26 09:13:37;;;;;;;4.10;3.03;;;;;;;0.69;70.47;99395.44;5106911;27;20257;-64
2023/11/26 09:16:06;;;;;;;3.43;3.00;;;;;;;0.66;70.32;99390.31;5112930;27;20394;-63
2023/11/26 09:18:36;;;;;;;3.40;2.97;;;;;;;0.67;71.33;99392.03;5113039;27;20200;-64
2023/11/26 09:21:04;;;;;;;3.40;3.10;;;;;;;0.69;70.75;99395.44;5104630;27;20204;-65
2023/11/26 09:23:32;;;;;;;3.63;3.33;;;;;;;0.66;71.09;99388.66;5113536;27;20298;-67
2023/11/26 09:26:02;;;;;;;3.53;3.13;;;;;;;0.63;71.13;99392.81;5118071;27;20238;-64
2023/11/26 09:28:31;;;;;;;4.77;3.03;;;;;;;0.59;71.68;99396.09;5111776;28;20255;-64
2023/11/26 09:30:59;;;;;;;4.13;3.10;;;;;;;0.62;72.17;99397.00;5114991;27;20206;-67
2023/11/26 09:33:27;;;;;;;5.40;3.87;;;;;;;0.64;71.96;99404.66;5116278;27;20241;-66
2023/11/26 09:35:55;;;;;;;3.77;3.03;;;;;;;0.66;72.75;99397.91;5105821;27;20247;-65
2023/11/26 09:38:23;;;;;;;4.87;3.57;;;;;;;0.67;72.37;99409.78;5111715;27;20199;-65
2023/11/26 09:40:52;;;;;;;4.10;3.23;;;;;;;0.68;72.04;99401.34;5109875;27;20660;-63
2023/11/26 09:43:22;;;;;;;3.00;2.70;;;;;;;0.70;72.71;99404.75;5112634;27;20196;-66
2023/11/26 09:45:51;;;;;;;3.53;3.10;;;;;;;0.73;72.34;99395.50;5112620;28;20261;-70
2023/11/26 09:48:19;;;;;;;3.23;2.90;;;;;;;0.77;72.61;99393.88;5112287;27;20218;-64
2023/11/26 09:50:52;;;;;;;7.83;3.17;;;;;;;0.86;72.32;99396.59;5116216;27;20650;-64
2023/11/26 09:53:21;;;;;;;5.57;2.90;;;;;;;0.95;72.18;99399.28;5113264;27;20210;-64
2023/11/26 09:55:50;;;;;;;4.20;2.77;;;;;;;1.06;72.19;99383.38;5120752;27;20196;-62
2023/11/26 09:58:18;;;;;;;3.13;2.77;;;;;;;1.13;71.87;99388.56;5105700;28;20232;-62
2023/11/26 10:00:47;;;;;;;3.40;3.00;;;;;;;1.19;71.15;99375.13;5107264;27;20200;-64
2023/11/26 10:03:16;;;;;;;3.83;2.97;;;;;;;1.25;71.21;99377.75;5110005;27;20222;-63
2023/11/26 10:05:46;;;;;;;3.27;2.80;;;;;;;1.35;71.73;99374.53;5106024;28;20304;-64
2023/11/26 10:08:28;;;;;;;4.13;2.70;;;;;;;1.43;71.09;99369.56;5112192;27;20207;-64
2023/11/26 10:10:57;;;;;;;3.47;2.97;;;;;;;1.54;71.15;99370.56;5116612;28;20319;-63
2023/11/26 10:13:39;;;;;;;3.10;2.57;;;;;;;1.60;69.34;99379.97;5122835;28;20545;-64
2023/11/26 10:16:09;;;;;;;3.50;3.00;;;;;;;1.60;69.35;99375.72;5116800;28;20238;-65
2023/11/26 10:18:41;;;;;;;4.70;3.53;;;;;;;1.59;69.60;99378.25;5110899;28;20597;-65
2023/11/26 10:21:10;;;;;;;5.93;3.00;;;;;;;1.58;68.70;99387.53;5107781;28;20232;-63
2023/11/26 10:23:40;;;;;;;3.80;2.60;;;;;;;1.55;69.31;99394.28;5115442;28;20217;-66
2023/11/26 10:26:19;;;;;;;3.17;2.73;;;;;;;1.52;69.48;99389.16;5111489;27;20200;-66
2023/11/26 10:29:03;;;;;;;4.00;2.67;;;;;;;1.44;68.93;99382.28;5108022;28;20223;-66
2023/11/26 10:31:33;;;;;;;2.90;2.37;;;;;;;1.41;68.57;99397.47;5108944;28;20196;-65
2023/11/26 10:34:12;;;;;;;2.90;2.47;;;;;;;1.39;68.61;99388.97;5109785;28;20206;-67
2023/11/26 10:36:41;;;;;;;2.47;2.03;;;;;;;1.41;69.33;99389.00;5102363;28;20206;-67
2023/11/26 10:39:11;;;;;;;2.37;2.17;;;;;;;1.53;69.07;99390.84;5110584;28;20196;-67
2023/11/26 10:41:43;;;;;;;3.03;2.17;;;;;;;1.49;67.02;99378.97;5109033;28;20207;-68
2023/11/26 10:44:13;;;;;;;3.73;2.00;;;;;;;1.47;67.38;99391.59;5108804;28;20689;-67
2023/11/26 10:46:47;;;;;;;3.40;2.40;;;;;;;1.46;66.50;99382.28;5115883;28;20251;-69
2023/11/26 10:49:19;;;;;;;1.60;1.50;;;;;;;1.44;66.62;99386.50;5113372;27;20770;-63
2023/11/26 10:51:58;;;;;;;3.80;2.03;;;;;;;1.49;67.21;99397.56;5104978;28;20211;-64
2023/11/26 10:54:32;;;;;;;2.70;1.83;;;;;;;1.54;66.39;99388.31;5105757;28;20287;-62
2023/11/26 10:57:10;;;;;;;1.67;1.27;;;;;;;1.41;65.76;99381.38;5109852;27;20256;-62
2023/11/26 10:59:44;;;;;;;3.37;1.73;;;;;;;1.41;66.08;99391.53;5122154;28;20231;-64
2023/11/26 11:02:15;;;;;;;2.13;1.73;;;;;;;1.42;65.97;99389.00;5103527;28;20292;-62
2023/11/26 11:04:46;;;;;;;3.50;1.63;;;;;;;1.41;65.85;99392.38;5113943;28;20718;-62
2023/11/26 11:07:15;;;;;;;2.77;1.80;;;;;;;1.43;65.46;99398.31;5112832;28;20212;-62
2023/11/26 11:09:52;;;;;;;2.00;1.80;;;;;;;1.49;64.45;99396.72;5112872;28;20247;-63
2023/11/26 11:12:25;;;;;;;2.33;1.90;;;;;;;1.44;64.09;99397.53;5124734;27;20244;-62
2023/11/26 11:14:57;;;;;;;2.30;1.63;;;;;;;1.49;64.64;99399.25;5127563;27;20228;-62
2023/11/26 11:17:30;;;;;;;3.00;1.90;;;;;;;1.44;63.83;99387.38;5118224;27;20223;-63
2023/11/26 11:19:59;;;;;;;3.17;1.87;;;;;;;1.38;64.57;99397.41;5102436;28;20265;-61
2023/11/26 11:22:39;;;;;;;2.60;1.83;;;;;;;1.27;64.86;99393.00;5114770;27;20283;-62
2023/11/26 11:25:08;;;;;;;2.73;1.67;;;;;;;1.23;65.46;99392.13;5114457;28;20214;-63
2023/11/26 11:27:54;;;;;;;2.63;1.87;;;;;;;1.23;65.88;99394.66;5111608;27;20648;-63
2023/11/26 11:30:51;;;;;;;4.20;2.07;;;;;;;1.31;65.63;99397.31;5113505;27;20285;-60
2023/11/26 11:33:21;;;;;;;2.80;1.93;;;;;;;1.33;64.58;99396.50;5114987;27;20207;-65
2023/11/26 11:35:50;;;;;;;3.17;1.87;;;;;;;1.35;65.08;99407.50;5115235;27;20678;-64
2023/11/26 11:38:18;;;;;;;2.37;2.00;;;;;;;1.35;63.91;99401.59;5107160;27;20592;-65
2023/11/26 11:40:59;;;;;;;2.57;2.00;;;;;;;1.34;64.23;99399.91;5112672;28;20985;-65
2023/11/26 11:43:26;;;;;;;4.57;1.73;;;;;;;1.37;65.06;99405.03;5096496;28;20531;-65
2023/11/26 11:45:54;;;;;;;3.07;2.03;;;;;;;1.33;64.33;99404.13;5102513;27;20671;-65
2023/11/26 11:48:58;;;;;;;3.03;1.93;;;;;;;1.32;64.35;99412.53;5107622;28;20683;-64
2023/11/26 11:51:34;;;;;;;4.40;2.00;;;;;;;1.32;65.17;99412.53;5097509;28;20204;-63
2023/11/26 11:54:22;;;;;;;2.70;1.83;;;;;;;1.37;63.78;99405.88;5106381;27;20230;-63